Time;durP1;ratioP1;P1;durP2;ratioP2;P2;SDS_P1;SDS_P2;PMS_P1;PMS_P2;Temp;Humidity;BMP_temperature;BMP_pressure;BME280_temperature;BME280_humidity;BME280_pressure;Samples;Min_cycle;Max_cycle;Signal;HPM_P1;HPM_P2
2023/03/21 00:00:56;;;;;;;8.53;5.90;;;;;;;;;;5072705;28;20886;-74
2023/03/21 00:03:23;;;;;;;7.17;6.47;;;;;;;;;;5072504;28;20928;-74
2023/03/21 00:05:52;;;;;;;10.90;6.00;;;;;;;;;;5072159;28;20455;-74
2023/03/21 00:08:19;;;;;;;6.67;6.00;;;;;;;;;;5072935;28;20463;-73
2023/03/21 00:10:47;;;;;;;7.40;6.20;;;;;;;;;;5076082;28;20999;-74
2023/03/21 00:13:17;;;;;;;6.77;5.97;;;;;;;;;;5075694;28;20487;-74
2023/03/21 00:15:53;;;;;;;6.77;6.10;;;;;;;;;;5075968;28;20465;-74
2023/03/21 00:18:24;;;;;;;7.77;6.67;;;;;;;;;;5075797;28;20888;-74
2023/03/21 00:21:01;;;;;;;9.20;6.40;;;;;;;;;;5075845;28;20472;-74
2023/03/21 00:23:28;;;;;;;7.67;6.30;;;;;;;;;;5075836;28;20455;-75
2023/03/21 00:25:55;;;;;;;7.53;6.50;;;;;;;;;;5075796;28;20450;-74
2023/03/21 00:28:24;;;;;;;7.37;6.63;;;;;;;;;;5075557;28;20455;-73
2023/03/21 00:30:51;;;;;;;6.83;6.13;;;;;;;;;;5075405;28;20479;-74
2023/03/21 00:33:20;;;;;;;6.57;5.97;;;;;;;;;;5075463;28;20494;-74
2023/03/21 00:35:48;;;;;;;6.53;5.80;;;;;;;;;;5075427;28;20460;-74
2023/03/21 00:38:15;;;;;;;7.00;6.27;;;;;;;;;;5075267;28;20462;-74
2023/03/21 00:40:42;;;;;;;7.33;5.87;;;;;;;;;;5075372;28;20498;-74
2023/03/21 00:43:10;;;;;;;6.70;5.73;;;;;;;;;;5075275;28;20961;-74
2023/03/21 00:45:39;;;;;;;7.43;5.93;;;;;;;;;;5074962;28;20459;-74
2023/03/21 00:48:06;;;;;;;11.13;6.70;;;;;;;;;;5075139;28;20456;-74
2023/03/21 00:50:33;;;;;;;6.80;5.10;;;;;;;;;;5075089;28;20480;-74
2023/03/21 00:53:00;;;;;;;8.93;6.77;;;;;;;;;;5075213;28;20487;-74
2023/03/21 00:55:28;;;;;;;12.67;6.57;;;;;;;;;;5074817;28;20539;-73
2023/03/21 00:57:55;;;;;;;9.20;6.13;;;;;;;;;;5074860;28;20460;-74
2023/03/21 01:00:22;;;;;;;10.40;7.13;;;;;;;;;;5074854;28;20459;-74
2023/03/21 01:02:56;;;;;;;11.60;6.37;;;;;;;;;;5074889;28;20451;-73
2023/03/21 01:06:04;;;;;;;21.90;10.30;;;;;;;;;;5074821;28;20968;-73
2023/03/21 01:08:11;;;;;;;12.63;8.53;;;;;;;;;;5074820;28;20444;-73
2023/03/21 01:10:40;;;;;;;7.83;7.03;;;;;;;;;;5074814;28;20476;-74
2023/03/21 01:13:08;;;;;;;7.70;6.90;;;;;;;;;;5074708;28;20492;-73
2023/03/21 01:15:35;;;;;;;8.50;6.77;;;;;;;;;;5074863;28;20456;-73
2023/03/21 01:18:04;;;;;;;7.07;5.77;;;;;;;;;;5074526;28;20478;-73
2023/03/21 01:20:31;;;;;;;9.53;6.30;;;;;;;;;;5074029;28;20476;-71
2023/03/21 01:22:58;;;;;;;9.40;7.30;;;;;;;;;;5074425;28;20452;-72
2023/03/21 01:25:25;;;;;;;9.40;7.40;;;;;;;;;;5074185;28;20454;-71
2023/03/21 01:27:53;;;;;;;8.97;7.87;;;;;;;;;;5074555;28;20456;-72
2023/03/21 01:30:20;;;;;;;6.70;6.10;;;;;;;;;;5074023;28;20474;-72
2023/03/21 01:32:48;;;;;;;11.67;8.50;;;;;;;;;;5074232;28;20479;-71
2023/03/21 01:35:17;;;;;;;15.47;8.50;;;;;;;;;;5074083;28;21031;-72
2023/03/21 01:37:44;;;;;;;19.13;8.90;;;;;;;;;;5074243;28;20452;-71
2023/03/21 01:40:16;;;;;;;14.73;9.60;;;;;;;;;;5074066;28;20815;-72
2023/03/21 01:42:44;;;;;;;7.60;6.13;;;;;;;;;;5074466;28;20443;-72
2023/03/21 01:45:26;;;;;;;11.80;8.40;;;;;;;;;;5073724;28;20503;-72
2023/03/21 01:47:53;;;;;;;8.37;7.47;;;;;;;;;;5074155;28;20941;-73
2023/03/21 01:50:22;;;;;;;8.50;6.67;;;;;;;;;;5074356;28;20816;-73
2023/03/21 01:52:49;;;;;;;9.53;7.50;;;;;;;;;;5074077;28;20930;-73
2023/03/21 01:55:18;;;;;;;15.33;7.87;;;;;;;;;;5073776;28;20447;-74
2023/03/21 01:57:47;;;;;;;8.57;7.67;;;;;;;;;;5074162;28;20831;-73
2023/03/21 02:00:16;;;;;;;9.90;6.77;;;;;;;;;;5074149;28;20455;-73
2023/03/21 02:02:50;;;;;;;7.97;6.80;;;;;;;;;;5074060;28;20867;-73
2023/03/21 02:05:18;;;;;;;8.10;6.50;;;;;;;;;;5073380;28;20452;-73
2023/03/21 02:07:47;;;;;;;8.40;7.07;;;;;;;;;;5073880;28;20553;-73
2023/03/21 02:10:15;;;;;;;7.93;7.23;;;;;;;;;;5073755;28;20460;-74
2023/03/21 02:12:42;;;;;;;8.03;6.40;;;;;;;;;;5073865;28;20492;-73
2023/03/21 02:15:10;;;;;;;8.97;6.90;;;;;;;;;;5073363;28;20443;-73
2023/03/21 02:17:40;;;;;;;8.13;7.30;;;;;;;;;;5073749;28;20452;-73
2023/03/21 02:20:16;;;;;;;7.80;6.93;;;;;;;;;;5073665;28;20509;-73
2023/03/21 02:23:03;;;;;;;7.20;6.43;;;;;;;;;;5073720;28;20518;-72
2023/03/21 02:25:42;;;;;;;8.23;6.43;;;;;;;;;;5073810;28;20546;-74
2023/03/21 02:28:12;;;;;;;7.90;7.03;;;;;;;;;;5073548;28;20447;-72
2023/03/21 02:30:48;;;;;;;7.17;6.50;;;;;;;;;;5073195;28;20853;-74
2023/03/21 02:33:24;;;;;;;11.73;7.93;;;;;;;;;;5072886;28;20491;-74
2023/03/21 02:35:55;;;;;;;9.40;6.60;;;;;;;;;;5073069;28;20454;-74
2023/03/21 02:38:27;;;;;;;9.80;8.03;;;;;;;;;;5073345;28;20458;-73
2023/03/21 02:41:00;;;;;;;8.53;7.53;;;;;;;;;;5073228;28;20502;-73
2023/03/21 02:43:29;;;;;;;13.50;8.37;;;;;;;;;;5073131;28;20452;-74
2023/03/21 02:46:01;;;;;;;8.90;6.50;;;;;;;;;;5073124;28;20452;-73
2023/03/21 02:48:33;;;;;;;7.80;6.20;;;;;;;;;;5073198;28;20824;-73
2023/03/21 02:51:02;;;;;;;7.83;7.13;;;;;;;;;;5073063;28;20478;-73
2023/03/21 02:53:32;;;;;;;7.77;6.87;;;;;;;;;;5072971;28;20487;-74
2023/03/21 02:56:00;;;;;;;7.30;6.30;;;;;;;;;;5073166;28;20466;-74
2023/03/21 02:58:28;;;;;;;7.50;6.33;;;;;;;;;;5072999;28;20793;-73
2023/03/21 03:00:56;;;;;;;8.23;7.33;;;;;;;;;;5073025;28;20981;-74
2023/03/21 03:03:23;;;;;;;8.40;6.43;;;;;;;;;;5072911;28;20546;-74
2023/03/21 03:05:52;;;;;;;8.13;6.87;;;;;;;;;;5072289;28;20941;-73
2023/03/21 03:08:24;;;;;;;8.63;6.77;;;;;;;;;;5072832;28;20451;-74
2023/03/21 03:10:59;;;;;;;8.87;7.13;;;;;;;;;;5072966;28;20533;-73
2023/03/21 03:13:34;;;;;;;9.20;7.87;;;;;;;;;;5072852;28;20494;-74
2023/03/21 03:16:06;;;;;;;10.40;7.83;;;;;;;;;;5072667;28;20490;-73
2023/03/21 03:18:38;;;;;;;9.73;8.30;;;;;;;;;;5072891;28;20455;-73
2023/03/21 03:21:09;;;;;;;10.60;8.10;;;;;;;;;;5072726;28;20550;-74
2023/03/21 03:23:41;;;;;;;10.73;8.30;;;;;;;;;;5072651;28;20963;-74
2023/03/21 03:26:11;;;;;;;14.40;9.07;;;;;;;;;;5072565;28;20458;-74
2023/03/21 03:28:40;;;;;;;9.00;7.40;;;;;;;;;;5072639;28;20483;-73
2023/03/21 03:31:10;;;;;;;9.03;7.60;;;;;;;;;;5072382;28;20484;-73
2023/03/21 03:33:39;;;;;;;12.90;8.03;;;;;;;;;;5072493;28;20522;-74
2023/03/21 03:36:09;;;;;;;9.23;8.20;;;;;;;;;;5072600;28;20840;-74
2023/03/21 03:38:36;;;;;;;9.83;7.33;;;;;;;;;;5072721;28;20448;-73
2023/03/21 03:41:09;;;;;;;7.27;6.57;;;;;;;;;;5072591;28;20995;-73
2023/03/21 03:43:41;;;;;;;8.87;6.97;;;;;;;;;;5075007;28;20451;-73
2023/03/21 03:46:12;;;;;;;9.80;7.10;;;;;;;;;;5076206;28;20478;-74
2023/03/21 03:48:45;;;;;;;11.33;8.67;;;;;;;;;;5076863;28;20451;-73
2023/03/21 03:51:15;;;;;;;9.80;7.90;;;;;;;;;;5076121;28;20550;-73
2023/03/21 03:53:44;;;;;;;8.27;7.13;;;;;;;;;;5076123;28;20868;-73
2023/03/21 03:56:12;;;;;;;8.67;7.20;;;;;;;;;;5076172;28;20882;-73
2023/03/21 03:58:41;;;;;;;11.80;8.70;;;;;;;;;;5076298;28;20957;-73
2023/03/21 04:01:08;;;;;;;11.13;8.83;;;;;;;;;;5075801;28;20476;-74
2023/03/21 04:03:37;;;;;;;8.53;7.70;;;;;;;;;;5075751;28;20455;-73
2023/03/21 04:06:05;;;;;;;10.30;8.80;;;;;;;;;;5075264;28;20448;-73
2023/03/21 04:08:32;;;;;;;16.67;8.47;;;;;;;;;;5076117;28;20470;-73
2023/03/21 04:10:59;;;;;;;12.43;8.93;;;;;;;;;;5075800;28;21015;-74
2023/03/21 04:13:26;;;;;;;10.63;9.33;;;;;;;;;;5075669;28;20832;-73
2023/03/21 04:15:54;;;;;;;10.33;8.17;;;;;;;;;;5075716;28;20825;-73
2023/03/21 04:18:22;;;;;;;9.47;8.30;;;;;;;;;;5075841;28;20451;-74
2023/03/21 04:20:50;;;;;;;15.53;9.57;;;;;;;;;;5075779;28;20476;-73
2023/03/21 04:23:19;;;;;;;9.43;8.43;;;;;;;;;;5075742;28;20499;-74
2023/03/21 04:25:46;;;;;;;10.40;8.60;;;;;;;;;;5075727;28;20456;-74
2023/03/21 04:28:14;;;;;;;10.20;8.60;;;;;;;;;;5075545;28;20462;-74
2023/03/21 04:30:41;;;;;;;9.50;8.00;;;;;;;;;;5075466;28;20487;-73
2023/03/21 04:33:09;;;;;;;12.50;9.50;;;;;;;;;;5075689;28;20487;-73
2023/03/21 04:35:37;;;;;;;9.20;8.03;;;;;;;;;;5075292;28;20937;-73
2023/03/21 04:38:04;;;;;;;9.60;8.60;;;;;;;;;;5075436;28;20543;-74
2023/03/21 04:40:31;;;;;;;10.23;9.23;;;;;;;;;;5075195;28;20514;-73
2023/03/21 04:43:00;;;;;;;10.93;8.33;;;;;;;;;;5075164;28;20452;-73
2023/03/21 04:45:27;;;;;;;11.10;8.10;;;;;;;;;;5075089;28;20564;-73
2023/03/21 04:47:54;;;;;;;10.03;9.03;;;;;;;;;;5075299;28;20456;-73
2023/03/21 04:50:23;;;;;;;11.83;7.23;;;;;;;;;;5075045;28;20551;-74
2023/03/21 04:52:50;;;;;;;15.23;12.10;;;;;;;;;;5075173;28;20484;-74
2023/03/21 04:55:20;;;;;;;19.10;13.83;;;;;;;;;;5073979;28;20459;-73
2023/03/21 04:57:47;;;;;;;20.53;11.37;;;;;;;;;;5075172;28;20960;-73
2023/03/21 05:00:15;;;;;;;13.57;10.73;;;;;;;;;;5075031;28;20463;-73
2023/03/21 05:02:42;;;;;;;11.73;9.93;;;;;;;;;;5075005;28;20813;-74
2023/03/21 05:05:10;;;;;;;14.77;9.57;;;;;;;;;;5073988;28;20456;-74
2023/03/21 05:07:40;;;;;;;10.30;8.47;;;;;;;;;;5074791;28;20452;-74
2023/03/21 05:10:08;;;;;;;19.07;12.60;;;;;;;;;;5074705;28;20971;-74
2023/03/21 05:12:35;;;;;;;14.47;10.57;;;;;;;;;;5074736;28;20452;-74
2023/03/21 05:15:02;;;;;;;8.73;7.83;;;;;;;;;;5074469;28;20474;-74
2023/03/21 05:17:29;;;;;;;11.40;8.83;;;;;;;;;;5074710;28;20547;-73
2023/03/21 05:19:57;;;;;;;13.47;8.87;;;;;;;;;;5074668;28;20567;-73
2023/03/21 05:22:25;;;;;;;9.73;8.77;;;;;;;;;;5074545;28;20472;-73
2023/03/21 05:24:54;;;;;;;14.87;12.13;;;;;;;;;;5074601;28;20455;-73
2023/03/21 05:27:34;;;;;;;16.17;11.97;;;;;;;;;;5074377;28;20812;-74
2023/03/21 05:30:01;;;;;;;11.03;8.67;;;;;;;;;;5074332;28;20471;-73
2023/03/21 05:32:29;;;;;;;9.17;8.27;;;;;;;;;;5074115;28;20487;-74
2023/03/21 05:34:56;;;;;;;10.73;8.00;;;;;;;;;;5074126;28;20495;-74
2023/03/21 05:37:23;;;;;;;9.57;8.27;;;;;;;;;;5074286;28;20456;-73
2023/03/21 05:39:50;;;;;;;9.27;7.77;;;;;;;;;;5074221;28;20459;-73
2023/03/21 05:42:19;;;;;;;12.90;8.57;;;;;;;;;;5073921;28;20471;-73
2023/03/21 05:44:46;;;;;;;13.90;9.90;;;;;;;;;;5073794;28;20495;-73
2023/03/21 05:47:14;;;;;;;11.67;9.37;;;;;;;;;;5074058;28;20823;-74
2023/03/21 05:49:41;;;;;;;12.33;8.37;;;;;;;;;;5074035;28;20453;-73
2023/03/21 05:52:08;;;;;;;9.17;8.37;;;;;;;;;;5073768;28;20472;-73
2023/03/21 05:54:35;;;;;;;10.83;9.07;;;;;;;;;;5074010;28;20487;-73
2023/03/21 05:57:02;;;;;;;9.63;8.67;;;;;;;;;;5073939;28;20498;-74
2023/03/21 05:59:31;;;;;;;10.47;7.50;;;;;;;;;;5073858;28;20829;-74
2023/03/21 06:01:58;;;;;;;11.73;7.53;;;;;;;;;;5073862;28;20479;-74
2023/03/21 06:04:25;;;;;;;14.43;8.20;;;;;;;;;;5073734;28;20463;-73
2023/03/21 06:06:53;;;;;;;7.70;6.90;;;;;;;;;;5073201;28;20455;-73
2023/03/21 06:09:20;;;;;;;9.43;7.87;;;;;;;;;;5073603;28;20460;-73
2023/03/21 06:11:48;;;;;;;10.33;8.77;;;;;;;;;;5073273;28;20518;-73
2023/03/21 06:14:16;;;;;;;13.10;10.67;;;;;;;;;;5073165;28;20904;-74
2023/03/21 06:16:44;;;;;;;12.87;8.93;;;;;;;;;;5073565;28;20483;-73
2023/03/21 06:19:12;;;;;;;10.13;7.73;;;;;;;;;;5073470;28;20459;-74
2023/03/21 06:21:39;;;;;;;8.47;7.07;;;;;;;;;;5073379;28;20968;-73
2023/03/21 06:24:06;;;;;;;7.60;6.90;;;;;;;;;;5072972;28;20505;-74
2023/03/21 06:26:33;;;;;;;7.50;6.80;;;;;;;;;;5073217;28;20455;-73
2023/03/21 06:29:00;;;;;;;11.40;7.53;;;;;;;;;;5073436;28;20463;-73
2023/03/21 06:31:28;;;;;;;9.90;5.87;;;;;;;;;;5072945;28;20491;-73
2023/03/21 06:33:56;;;;;;;8.37;7.60;;;;;;;;;;5072927;28;20496;-73
2023/03/21 06:36:24;;;;;;;7.20;6.17;;;;;;;;;;5073051;28;20444;-73
2023/03/21 06:38:51;;;;;;;8.23;7.47;;;;;;;;;;5073242;28;20455;-74
2023/03/21 06:41:19;;;;;;;13.90;8.70;;;;;;;;;;5072996;28;20475;-74
2023/03/21 06:43:47;;;;;;;7.07;6.03;;;;;;;;;;5072911;28;20458;-74
2023/03/21 06:46:14;;;;;;;6.70;6.00;;;;;;;;;;5073027;28;20452;-73
2023/03/21 06:48:43;;;;;;;10.30;6.50;;;;;;;;;;5073021;28;20447;-73
2023/03/21 06:51:12;;;;;;;15.37;6.33;;;;;;;;;;5072955;28;20471;-73
2023/03/21 06:53:40;;;;;;;12.33;6.97;;;;;;;;;;5072780;28;20494;-74
2023/03/21 06:56:07;;;;;;;7.60;6.00;;;;;;;;;;5073055;28;20485;-74
2023/03/21 06:58:34;;;;;;;8.13;7.20;;;;;;;;;;5073078;28;20863;-73
2023/03/21 07:01:02;;;;;;;8.47;6.13;;;;;;;;;;5072971;28;20468;-73
2023/03/21 07:03:30;;;;;;;8.73;6.60;;;;;;;;;;5072911;28;20456;-73
2023/03/21 07:05:57;;;;;;;7.13;5.20;;;;;;;;;;5072591;28;20444;-74
2023/03/21 07:08:26;;;;;;;5.40;4.90;;;;;;;;;;5073168;28;20448;-73
2023/03/21 07:10:56;;;;;;;7.50;6.20;;;;;;;;;;5073151;28;20527;-73
2023/03/21 07:13:23;;;;;;;5.30;4.63;;;;;;;;;;5073076;28;20473;-73
2023/03/21 07:15:50;;;;;;;5.03;4.63;;;;;;;;;;5072920;28;20968;-73
2023/03/21 07:18:17;;;;;;;4.57;4.00;;;;;;;;;;5074954;28;20806;-73
2023/03/21 07:20:47;;;;;;;7.63;4.90;;;;;;;;;;5077322;28;20476;-74
2023/03/21 07:23:14;;;;;;;11.03;7.30;;;;;;;;;;5077208;28;20491;-74
2023/03/21 07:25:42;;;;;;;5.50;4.73;;;;;;;;;;5076905;28;20496;-73
2023/03/21 07:28:09;;;;;;;7.80;4.30;;;;;;;;;;5076997;28;20447;-74
2023/03/21 07:30:37;;;;;;;5.83;4.50;;;;;;;;;;5076836;28;20480;-73
2023/03/21 07:33:04;;;;;;;4.40;3.90;;;;;;;;;;5076885;28;20803;-74
2023/03/21 07:35:31;;;;;;;5.70;4.13;;;;;;;;;;5076748;28;20483;-73
2023/03/21 07:37:58;;;;;;;8.70;6.57;;;;;;;;;;5076818;28;20958;-73
2023/03/21 07:40:26;;;;;;;4.13;3.77;;;;;;;;;;5077102;28;20851;-73
2023/03/21 07:42:54;;;;;;;8.90;4.83;;;;;;;;;;5076775;28;20958;-73
2023/03/21 07:45:24;;;;;;;4.80;4.40;;;;;;;;;;5076236;28;20509;-73
2023/03/21 07:47:51;;;;;;;5.57;4.07;;;;;;;;;;5076423;28;20513;-74
2023/03/21 07:50:18;;;;;;;4.30;3.90;;;;;;;;;;5076357;28;20459;-73
2023/03/21 07:52:46;;;;;;;6.27;4.10;;;;;;;;;;5076448;28;20447;-73
2023/03/21 07:55:13;;;;;;;4.57;4.17;;;;;;;;;;5076117;28;20519;-73
2023/03/21 07:57:40;;;;;;;4.37;3.97;;;;;;;;;;5076641;28;20951;-74
2023/03/21 08:00:11;;;;;;;6.00;4.20;;;;;;;;;;5076365;28;20933;-73
2023/03/21 08:02:38;;;;;;;6.30;4.30;;;;;;;;;;5076405;28;20457;-74
2023/03/21 08:05:06;;;;;;;5.60;5.00;;;;;;;;;;5075890;28;20454;-73
2023/03/21 08:07:33;;;;;;;5.73;4.57;;;;;;;;;;5076596;28;20452;-73
2023/03/21 08:10:00;;;;;;;5.23;4.37;;;;;;;;;;5076527;28;20456;-74
2023/03/21 08:12:27;;;;;;;5.10;4.43;;;;;;;;;;5076727;28;20471;-74
2023/03/21 08:14:54;;;;;;;7.20;4.70;;;;;;;;;;5075923;28;20487;-74
2023/03/21 08:17:22;;;;;;;8.03;4.97;;;;;;;;;;5076366;28;20459;-73
2023/03/21 08:19:49;;;;;;;8.00;5.40;;;;;;;;;;5076123;28;20456;-73
2023/03/21 08:22:17;;;;;;;5.33;4.83;;;;;;;;;;5076261;28;20479;-73
2023/03/21 08:24:44;;;;;;;7.73;5.10;;;;;;;;;;5076157;28;20448;-74
2023/03/21 08:27:11;;;;;;;6.60;5.70;;;;;;;;;;5075986;28;20784;-74
2023/03/21 08:29:41;;;;;;;6.90;4.97;;;;;;;;;;5074761;28;20481;-74
2023/03/21 08:32:08;;;;;;;6.63;4.73;;;;;;;;;;5075761;28;20479;-74
2023/03/21 08:34:36;;;;;;;7.40;5.80;;;;;;;;;;5075908;28;20475;-74
2023/03/21 08:37:03;;;;;;;6.47;5.63;;;;;;;;;;5075833;28;20486;-73
2023/03/21 08:39:31;;;;;;;7.27;5.63;;;;;;;;;;5075847;28;20452;-77
2023/03/21 08:41:58;;;;;;;6.53;5.80;;;;;;;;;;5075738;28;20468;-74
2023/03/21 08:44:25;;;;;;;6.03;5.33;;;;;;;;;;5075979;28;20452;-74
2023/03/21 08:46:53;;;;;;;7.77;5.70;;;;;;;;;;5075572;28;20459;-73
2023/03/21 08:49:20;;;;;;;13.00;7.67;;;;;;;;;;5075691;28;20508;-74
2023/03/21 08:51:48;;;;;;;8.33;5.90;;;;;;;;;;5075988;28;20471;-73
2023/03/21 08:54:20;;;;;;;8.17;6.30;;;;;;;;;;5075477;28;20861;-75
2023/03/21 08:56:48;;;;;;;8.63;6.37;;;;;;;;;;5075635;28;20968;-74
2023/03/21 08:59:15;;;;;;;7.50;6.50;;;;;;;;;;5075702;28;20452;-73
2023/03/21 09:01:43;;;;;;;7.73;6.97;;;;;;;;;;5075771;28;20476;-73
2023/03/21 09:04:11;;;;;;;10.67;6.90;;;;;;;;;;5075372;28;20487;-74
2023/03/21 09:06:39;;;;;;;8.50;6.37;;;;;;;;;;5074874;28;20459;-74
2023/03/21 09:09:08;;;;;;;7.07;6.10;;;;;;;;;;5075296;28;20460;-74
2023/03/21 09:11:35;;;;;;;7.07;6.37;;;;;;;;;;5075228;28;20498;-74
2023/03/21 09:14:02;;;;;;;7.50;6.70;;;;;;;;;;5075010;28;20455;-74
2023/03/21 09:16:30;;;;;;;6.87;5.77;;;;;;;;;;5075258;28;20483;-74
2023/03/21 09:18:57;;;;;;;8.77;7.10;;;;;;;;;;5075164;28;20444;-73
2023/03/21 09:21:26;;;;;;;7.30;6.47;;;;;;;;;;5075015;28;20475;-74
2023/03/21 09:23:55;;;;;;;7.37;6.50;;;;;;;;;;5074569;28;20456;-73
2023/03/21 09:26:24;;;;;;;10.57;6.03;;;;;;;;;;5074563;28;20459;-73
2023/03/21 09:28:52;;;;;;;8.50;7.30;;;;;;;;;;5074944;28;20456;-73
2023/03/21 09:31:21;;;;;;;10.83;6.43;;;;;;;;;;5074434;28;20511;-73
2023/03/21 09:33:49;;;;;;;8.47;6.87;;;;;;;;;;5074688;28;20448;-74
2023/03/21 09:36:19;;;;;;;10.30;7.30;;;;;;;;;;5074461;28;20895;-74
2023/03/21 09:38:47;;;;;;;7.27;6.00;;;;;;;;;;5074773;28;20846;-73
2023/03/21 09:41:22;;;;;;;11.00;6.70;;;;;;;;;;5074246;28;20506;-74
2023/03/21 09:43:58;;;;;;;10.07;8.27;;;;;;;;;;5074889;28;20502;-73
2023/03/21 09:46:28;;;;;;;9.53;6.70;;;;;;;;;;5074772;28;20462;-75
2023/03/21 09:48:57;;;;;;;6.57;5.90;;;;;;;;;;5074188;28;21063;-76
2023/03/21 09:51:27;;;;;;;7.00;6.23;;;;;;;;;;5074337;28;20476;-74
2023/03/21 09:53:56;;;;;;;7.47;6.77;;;;;;;;;;5073750;28;20460;-74
2023/03/21 09:56:24;;;;;;;7.10;5.80;;;;;;;;;;5073482;28;20484;-75
2023/03/21 09:58:54;;;;;;;7.30;6.20;;;;;;;;;;5073766;28;20534;-75
2023/03/21 10:01:27;;;;;;;8.50;6.20;;;;;;;;;;5073763;28;20474;-74
2023/03/21 10:03:55;;;;;;;7.07;5.40;;;;;;;;;;5074039;28;20456;-75
2023/03/21 10:06:27;;;;;;;5.63;5.03;;;;;;;;;;5073792;28;20998;-74
2023/03/21 10:09:00;;;;;;;6.47;5.10;;;;;;;;;;5074064;28;20542;-74
2023/03/21 10:11:29;;;;;;;5.90;5.40;;;;;;;;;;5073710;28;20484;-74
2023/03/21 10:13:59;;;;;;;6.63;5.27;;;;;;;;;;5073705;28;20464;-74
2023/03/21 10:16:29;;;;;;;5.53;5.00;;;;;;;;;;5073483;28;20483;-74
2023/03/21 10:18:56;;;;;;;8.43;6.17;;;;;;;;;;5073811;28;20460;-74
2023/03/21 10:21:25;;;;;;;6.90;5.83;;;;;;;;;;5073738;28;20961;-75
2023/03/21 10:23:53;;;;;;;6.33;5.67;;;;;;;;;;5073581;28;20468;-74
2023/03/21 10:26:21;;;;;;;5.57;4.87;;;;;;;;;;5073500;28;20455;-74
2023/03/21 10:28:49;;;;;;;6.77;5.80;;;;;;;;;;5073317;28;20456;-74
2023/03/21 10:31:19;;;;;;;5.70;5.20;;;;;;;;;;5073303;28;20529;-74
2023/03/21 10:33:47;;;;;;;7.03;6.23;;;;;;;;;;5073486;28;20456;-74
2023/03/21 10:36:16;;;;;;;7.67;6.70;;;;;;;;;;5073313;28;20487;-74
2023/03/21 10:38:45;;;;;;;6.93;5.70;;;;;;;;;;5073578;28;20459;-74
2023/03/21 10:41:12;;;;;;;5.13;4.63;;;;;;;;;;5073774;28;20472;-75
2023/03/21 10:43:40;;;;;;;6.30;5.70;;;;;;;;;;5073263;28;20475;-75
2023/03/21 10:46:09;;;;;;;6.80;5.87;;;;;;;;;;5073218;28;20550;-75
2023/03/21 10:48:39;;;;;;;7.23;5.33;;;;;;;;;;5073618;28;20452;-74
2023/03/21 10:51:08;;;;;;;5.67;5.17;;;;;;;;;;5073429;28;20488;-74
2023/03/21 10:53:36;;;;;;;5.47;5.07;;;;;;;;;;5072823;28;20452;-74
2023/03/21 10:56:07;;;;;;;6.50;5.87;;;;;;;;;;5073287;28;20878;-74
2023/03/21 10:58:38;;;;;;;5.50;5.00;;;;;;;;;;5073396;28;21008;-74
2023/03/21 11:01:06;;;;;;;5.67;5.10;;;;;;;;;;5073215;28;20838;-74
2023/03/21 11:03:36;;;;;;;5.73;5.20;;;;;;;;;;5073363;28;20828;-74
2023/03/21 11:06:07;;;;;;;5.27;4.77;;;;;;;;;;5073232;28;20447;-74
2023/03/21 11:08:39;;;;;;;5.57;5.07;;;;;;;;;;5073540;28;20464;-74
2023/03/21 11:11:08;;;;;;;5.43;4.47;;;;;;;;;;5073013;28;20529;-74
2023/03/21 11:13:38;;;;;;;5.57;5.07;;;;;;;;;;5072998;28;20839;-74
2023/03/21 11:16:07;;;;;;;6.23;5.63;;;;;;;;;;5072530;28;20536;-74
2023/03/21 11:18:39;;;;;;;5.83;4.67;;;;;;;;;;5072947;28;20501;-74
2023/03/21 11:21:10;;;;;;;5.27;4.77;;;;;;;;;;5073015;28;20484;-74
2023/03/21 11:23:42;;;;;;;5.40;4.93;;;;;;;;;;5073509;28;20830;-74
2023/03/21 11:26:11;;;;;;;4.77;4.37;;;;;;;;;;5073055;28;20447;-74
2023/03/21 11:28:40;;;;;;;4.90;4.50;;;;;;;;;;5073067;28;20556;-74
2023/03/21 11:31:08;;;;;;;5.47;4.90;;;;;;;;;;5073007;28;21010;-74
2023/03/21 11:33:37;;;;;;;8.63;5.10;;;;;;;;;;5072544;28;20464;-74
2023/03/21 11:36:05;;;;;;;7.30;5.60;;;;;;;;;;5072639;28;20483;-74
2023/03/21 11:38:36;;;;;;;5.40;4.90;;;;;;;;;;5072901;28;20451;-74
2023/03/21 11:41:04;;;;;;;5.50;5.00;;;;;;;;;;5072708;28;20475;-74
2023/03/21 11:43:32;;;;;;;5.60;5.10;;;;;;;;;;5072849;28;20954;-74
2023/03/21 11:46:00;;;;;;;4.83;4.00;;;;;;;;;;5073071;28;20470;-74
2023/03/21 11:48:28;;;;;;;5.10;4.67;;;;;;;;;;5072901;28;20463;-74
2023/03/21 11:50:59;;;;;;;5.63;4.80;;;;;;;;;;5072517;28;20523;-74
2023/03/21 11:53:35;;;;;;;6.60;5.80;;;;;;;;;;5072587;28;20436;-74
2023/03/21 11:56:11;;;;;;;5.33;4.83;;;;;;;;;;5072408;28;20486;-74
2023/03/21 11:58:42;;;;;;;5.07;3.90;;;;;;;;;;5072579;28;20916;-75
2023/03/21 12:01:13;;;;;;;4.60;4.20;;;;;;;;;;5072616;28;20475;-73
2023/03/21 12:03:47;;;;;;;4.10;3.60;;;;;;;;;;5073249;28;20963;-73
2023/03/21 12:06:18;;;;;;;4.90;4.23;;;;;;;;;;5076210;28;20897;-74
2023/03/21 12:08:48;;;;;;;4.67;4.00;;;;;;;;;;5076036;28;20462;-74
2023/03/21 12:11:20;;;;;;;4.27;3.77;;;;;;;;;;5076238;28;20961;-74
2023/03/21 12:13:52;;;;;;;3.90;3.60;;;;;;;;;;5075890;28;20451;-73
2023/03/21 12:16:25;;;;;;;3.93;3.63;;;;;;;;;;5075750;28;20546;-74
2023/03/21 12:19:03;;;;;;;4.50;4.10;;;;;;;;;;5076223;28;20447;-74
2023/03/21 12:21:34;;;;;;;4.40;4.00;;;;;;;;;;5075916;28;20503;-73
2023/03/21 12:24:04;;;;;;;5.00;4.60;;;;;;;;;;5075792;28;20967;-74
2023/03/21 12:26:35;;;;;;;4.67;4.27;;;;;;;;;;5075584;28;20463;-74
2023/03/21 12:29:10;;;;;;;4.00;3.60;;;;;;;;;;5075885;28;20905;-73
2023/03/21 12:31:44;;;;;;;3.70;3.40;;;;;;;;;;5075442;28;20491;-73
2023/03/21 12:34:16;;;;;;;6.33;3.53;;;;;;;;;;5075270;28;20458;-73
2023/03/21 12:36:51;;;;;;;4.13;3.73;;;;;;;;;;5075736;28;20491;-73
2023/03/21 12:39:25;;;;;;;4.80;4.40;;;;;;;;;;5075695;28;20435;-73
2023/03/21 12:41:57;;;;;;;5.67;5.17;;;;;;;;;;5075412;28;20467;-73
2023/03/21 12:44:27;;;;;;;5.57;4.53;;;;;;;;;;5075186;28;20442;-73
2023/03/21 12:46:57;;;;;;;4.13;3.73;;;;;;;;;;5075490;28;20459;-73
2023/03/21 12:49:27;;;;;;;5.00;4.60;;;;;;;;;;5075182;28;20455;-73
2023/03/21 12:51:57;;;;;;;4.50;4.03;;;;;;;;;;5075395;28;21006;-73
2023/03/21 12:54:25;;;;;;;4.47;4.07;;;;;;;;;;5075136;28;20455;-73
2023/03/21 12:56:55;;;;;;;6.77;3.83;;;;;;;;;;5075284;28;21035;-73
2023/03/21 12:59:28;;;;;;;4.37;3.80;;;;;;;;;;5075695;28;20440;-73
2023/03/21 13:01:56;;;;;;;4.43;4.03;;;;;;;;;;5074980;28;20479;-73
2023/03/21 13:04:37;;;;;;;4.47;4.07;;;;;;;;;;5075009;28;20960;-73
2023/03/21 13:07:07;;;;;;;5.60;5.10;;;;;;;;;;5074933;28;20948;-73
2023/03/21 13:09:35;;;;;;;5.80;4.77;;;;;;;;;;5074891;28;20455;-73
2023/03/21 13:12:07;;;;;;;5.40;5.00;;;;;;;;;;5074690;28;20521;-73
2023/03/21 13:14:39;;;;;;;6.20;5.33;;;;;;;;;;5074924;28;20455;-73
2023/03/21 13:17:09;;;;;;;4.97;4.40;;;;;;;;;;5074257;28;20514;-73
2023/03/21 13:19:39;;;;;;;6.47;3.90;;;;;;;;;;5074737;28;20850;-73
2023/03/21 13:22:08;;;;;;;5.10;3.80;;;;;;;;;;5074536;28;20470;-73
2023/03/21 13:24:39;;;;;;;5.17;4.77;;;;;;;;;;5074388;28;20455;-73
2023/03/21 13:27:07;;;;;;;5.10;4.60;;;;;;;;;;5074585;28;20485;-73
2023/03/21 13:29:43;;;;;;;4.87;4.20;;;;;;;;;;5074538;28;20454;-73
2023/03/21 13:32:16;;;;;;;5.10;4.60;;;;;;;;;;5074230;28;20534;-73
2023/03/21 13:34:44;;;;;;;5.40;4.90;;;;;;;;;;5074601;28;20459;-73
2023/03/21 13:37:16;;;;;;;4.97;4.50;;;;;;;;;;5074200;28;20523;-73
2023/03/21 13:39:44;;;;;;;5.23;4.67;;;;;;;;;;5074269;28;20880;-73
2023/03/21 13:42:18;;;;;;;5.13;4.07;;;;;;;;;;5074124;28;20471;-73
2023/03/21 13:44:49;;;;;;;5.80;4.50;;;;;;;;;;5074461;28;20428;-73
2023/03/21 13:47:24;;;;;;;5.63;5.13;;;;;;;;;;5074525;28;20471;-73
2023/03/21 13:50:06;;;;;;;4.50;4.03;;;;;;;;;;5073977;28;20502;-73
2023/03/21 13:52:34;;;;;;;6.20;5.10;;;;;;;;;;5073196;28;20454;-73
2023/03/21 13:55:03;;;;;;;4.67;4.27;;;;;;;;;;5073232;28;20494;-73
2023/03/21 13:57:38;;;;;;;4.57;4.17;;;;;;;;;;5073658;28;20552;-73
2023/03/21 14:00:18;;;;;;;6.50;4.97;;;;;;;;;;5073819;28;20497;-73
2023/03/21 14:02:53;;;;;;;6.00;5.40;;;;;;;;;;5073864;28;20452;-73
2023/03/21 14:05:21;;;;;;;6.43;4.77;;;;;;;;;;5072883;28;20467;-73
2023/03/21 14:07:49;;;;;;;5.43;4.47;;;;;;;;;;5073705;28;20452;-74
2023/03/21 14:10:19;;;;;;;6.73;4.33;;;;;;;;;;5073457;28;20455;-73
2023/03/21 14:12:46;;;;;;;4.73;4.33;;;;;;;;;;5073665;28;20945;-73
2023/03/21 14:15:16;;;;;;;9.60;4.20;;;;;;;;;;5073496;28;20456;-72
2023/03/21 14:17:52;;;;;;;5.57;5.00;;;;;;;;;;5073623;28;20494;-73
2023/03/21 14:20:21;;;;;;;4.70;4.17;;;;;;;;;;5073435;28;20454;-74
2023/03/21 14:22:49;;;;;;;5.30;4.80;;;;;;;;;;5073312;28;20471;-73
2023/03/21 14:25:17;;;;;;;5.17;4.30;;;;;;;;;;5072982;28;20566;-73
2023/03/21 14:27:46;;;;;;;5.03;4.53;;;;;;;;;;5072597;28;20448;-73
2023/03/21 14:30:20;;;;;;;4.23;3.83;;;;;;;;;;5072894;28;20448;-73
2023/03/21 14:32:47;;;;;;;4.90;4.50;;;;;;;;;;5073563;28;20936;-73
2023/03/21 14:35:16;;;;;;;5.27;4.77;;;;;;;;;;5073398;28;20462;-74
2023/03/21 14:37:46;;;;;;;5.57;4.87;;;;;;;;;;5072438;28;20500;-72
2023/03/21 14:40:21;;;;;;;7.83;5.33;;;;;;;;;;5073132;28;20460;-73
2023/03/21 14:42:49;;;;;;;6.50;4.47;;;;;;;;;;5072996;28;20459;-73
2023/03/21 14:45:18;;;;;;;4.03;3.63;;;;;;;;;;5072741;28;20451;-73
2023/03/21 14:47:54;;;;;;;5.80;4.60;;;;;;;;;;5073154;28;20448;-73
2023/03/21 14:50:25;;;;;;;4.70;4.30;;;;;;;;;;5072909;28;20951;-73
2023/03/21 14:52:53;;;;;;;4.77;4.37;;;;;;;;;;5072490;28;20475;-73